createdAt,value
2023-03-28T00:01:10.725Z,2.60
2023-03-28T00:03:40.677Z,2.60
2023-03-28T00:06:11.360Z,2.60
2023-03-28T00:08:41.601Z,2.60
2023-03-28T00:11:12.593Z,2.60
2023-03-28T00:13:40.921Z,2.50
2023-03-28T00:16:12.552Z,2.50
2023-03-28T00:18:42.797Z,2.50
2023-03-28T00:21:23.490Z,2.40
2023-03-28T00:23:54.952Z,2.40
2023-03-28T00:26:26.645Z,2.30
2023-03-28T00:28:55.793Z,2.30
2023-03-28T00:31:24.800Z,2.20
2023-03-28T00:33:53.385Z,2.20
2023-03-28T00:36:23.451Z,2.30
2023-03-28T00:38:54.169Z,2.20
2023-03-28T00:41:23.476Z,2.20
2023-03-28T00:43:54.952Z,2.20
2023-03-28T00:46:26.775Z,2.20
2023-03-28T00:48:59.055Z,2.10
2023-03-28T00:51:31.326Z,2.10
2023-03-28T00:54:03.861Z,2.10
2023-03-28T00:56:35.561Z,2.20
2023-03-28T00:59:09.096Z,2.10
2023-03-28T01:01:37.769Z,2.20
2023-03-28T01:04:10.345Z,2.30
2023-03-28T01:06:42.736Z,2.30
2023-03-28T01:09:17.022Z,2.20
2023-03-28T01:11:50.706Z,2.20
2023-03-28T01:14:21.894Z,2.20
2023-03-28T01:16:52.610Z,2.20
2023-03-28T01:19:32.307Z,2.20
2023-03-28T01:22:28.652Z,2.20
2023-03-28T01:25:31.084Z,2.10
2023-03-28T01:28:05.450Z,2.10
2023-03-28T01:31:19.664Z,2.10
2023-03-28T01:35:06.931Z,2.10
2023-03-28T01:37:43.467Z,2.00
2023-03-28T01:40:36.792Z,2.00
2023-03-28T01:43:18.536Z,1.90
2023-03-28T01:45:53.522Z,1.90
2023-03-28T01:48:31.660Z,1.80
2023-03-28T01:51:09.114Z,1.80
2023-03-28T01:53:45.543Z,1.70
2023-03-28T01:56:22.366Z,1.60
2023-03-28T01:58:59.747Z,1.60
2023-03-28T02:01:54.153Z,1.60
2023-03-28T02:04:26.703Z,1.60
2023-03-28T02:06:58.614Z,1.50
2023-03-28T02:09:35.918Z,1.50
2023-03-28T02:12:18.422Z,1.50
2023-03-28T02:14:59.666Z,1.50
2023-03-28T02:17:52.089Z,1.40
2023-03-28T02:20:45.960Z,1.50
2023-03-28T02:23:42.580Z,1.50
2023-03-28T02:26:47.802Z,1.40
2023-03-28T02:29:30.686Z,1.30
2023-03-28T02:32:22.069Z,1.30
2023-03-28T02:34:53.812Z,1.20
2023-03-28T02:37:34.246Z,1.20
2023-03-28T02:40:28.282Z,1.20
2023-03-28T02:43:16.339Z,1.10
2023-03-28T02:46:20.978Z,1.00
2023-03-28T02:49:25.672Z,1.00
2023-03-28T02:52:09.353Z,1.00
2023-03-28T02:54:44.596Z,1.10
2023-03-28T02:57:38.917Z,1.00
2023-03-28T03:00:17.299Z,1.10
2023-03-28T03:02:49.411Z,1.20
2023-03-28T03:05:20.305Z,1.20
2023-03-28T03:07:49.716Z,1.20
2023-03-28T03:10:18.767Z,1.20
2023-03-28T03:12:48.408Z,1.10
2023-03-28T03:15:20.139Z,1.10
2023-03-28T03:17:48.559Z,1.00
2023-03-28T03:20:19.787Z,1.00
2023-03-28T03:22:48.191Z,1.00
2023-03-28T03:25:16.603Z,1.00
2023-03-28T03:27:55.146Z,1.00
2023-03-28T03:30:24.988Z,0.90
2023-03-28T03:33:30.599Z,0.90
2023-03-28T03:36:04.822Z,0.90
2023-03-28T03:38:34.603Z,0.80
2023-03-28T03:41:03.170Z,0.80
2023-03-28T03:43:32.069Z,0.80
2023-03-28T03:46:03.342Z,0.80
2023-03-28T03:48:31.922Z,0.80
2023-03-28T03:51:02.222Z,0.80
2023-03-28T03:53:30.424Z,0.80
2023-03-28T03:56:06.317Z,0.80
2023-03-28T03:58:54.831Z,0.70
2023-03-28T04:01:30.113Z,0.70
2023-03-28T04:04:07.294Z,0.70
2023-03-28T04:06:54.792Z,0.70
2023-03-28T04:09:26.576Z,0.80
2023-03-28T04:12:00.374Z,0.90
2023-03-28T04:14:29.264Z,0.90
2023-03-28T04:17:23.384Z,1.00
2023-03-28T04:19:52.113Z,1.10
2023-03-28T04:22:20.461Z,1.10
2023-03-28T04:24:56.748Z,1.10
2023-03-28T04:27:37.706Z,1.10
2023-03-28T04:30:07.264Z,1.10
2023-03-28T04:32:55.301Z,1.20
2023-03-28T04:35:29.945Z,1.20
2023-03-28T04:37:58.973Z,1.20
2023-03-28T04:40:29.240Z,1.20
2023-03-28T04:43:07.012Z,1.20
2023-03-28T04:45:38.072Z,1.20
2023-03-28T04:48:17.592Z,1.30
2023-03-28T04:50:46.048Z,1.30
2023-03-28T04:53:16.152Z,1.30
2023-03-28T04:56:04.354Z,1.30
2023-03-28T04:58:33.397Z,1.20
2023-03-28T05:01:03.729Z,1.20
2023-03-28T05:03:52.313Z,1.20
2023-03-28T05:06:21.623Z,1.30
2023-03-28T05:08:51.269Z,1.30
2023-03-28T05:11:20.385Z,1.40
2023-03-28T05:13:48.633Z,1.60
2023-03-28T05:16:31.695Z,1.60
2023-03-28T05:19:22.833Z,1.70
2023-03-28T05:22:10.741Z,1.70
2023-03-28T05:24:42.825Z,1.80
2023-03-28T05:27:18.749Z,1.90
2023-03-28T05:29:48.063Z,1.90
2023-03-28T05:32:17.968Z,2.00
2023-03-28T05:34:49.060Z,2.10
2023-03-28T05:37:17.538Z,2.10
2023-03-28T05:39:50.264Z,2.10
2023-03-28T05:42:18.501Z,2.10
2023-03-28T05:44:47.150Z,2.10
2023-03-28T05:47:15.459Z,2.20
2023-03-28T05:49:43.950Z,2.10
2023-03-28T05:52:13.743Z,2.20
2023-03-28T05:54:50.445Z,2.30
2023-03-28T05:57:22.726Z,2.30
2023-03-28T05:59:51.580Z,2.40
2023-03-28T06:02:25.193Z,2.40
2023-03-28T06:04:58.861Z,2.50
2023-03-28T06:07:41.435Z,2.50
2023-03-28T06:10:13.402Z,2.50
2023-03-28T06:12:45.227Z,2.50
2023-03-28T06:15:14.217Z,2.60
2023-03-28T06:17:46.455Z,2.60
2023-03-28T06:20:15.956Z,2.60
2023-03-28T06:22:45.697Z,2.60
2023-03-28T06:25:14.012Z,2.60
2023-03-28T06:27:42.641Z,2.70
2023-03-28T06:30:12.575Z,2.70
2023-03-28T06:32:46.396Z,2.70
2023-03-28T06:35:16.531Z,2.90
2023-03-28T06:37:46.111Z,3.10
2023-03-28T06:40:18.418Z,3.20
2023-03-28T06:42:47.237Z,3.30
2023-03-28T06:45:26.817Z,3.40
2023-03-28T06:48:04.830Z,3.50
2023-03-28T06:51:12.889Z,3.50
2023-03-28T06:53:43.794Z,3.50
2023-03-28T06:56:13.284Z,3.40
2023-03-28T06:58:41.952Z,3.30
2023-03-28T07:01:13.014Z,3.40
2023-03-28T07:04:07.649Z,3.60
2023-03-28T07:06:37.667Z,3.70
2023-03-28T07:09:08.275Z,3.70
2023-03-28T07:11:43.279Z,3.70
2023-03-28T07:14:11.560Z,3.70
2023-03-28T07:16:40.359Z,3.60
2023-03-28T07:19:11.156Z,3.50
2023-03-28T07:21:42.760Z,3.60
2023-03-28T07:24:12.385Z,3.60
2023-03-28T07:27:07.976Z,3.50
2023-03-28T07:29:43.518Z,3.50
2023-03-28T07:32:13.086Z,3.50
2023-03-28T07:34:41.350Z,3.60
2023-03-28T07:37:12.334Z,3.80
2023-03-28T07:39:50.800Z,4.00
2023-03-28T07:42:22.920Z,4.20
2023-03-28T07:44:51.242Z,4.20
2023-03-28T07:47:19.683Z,4.30
2023-03-28T07:49:47.995Z,4.40
2023-03-28T07:52:16.501Z,4.40
2023-03-28T07:54:45.124Z,4.50
2023-03-28T07:57:14.814Z,4.60
2023-03-28T08:00:13.342Z,4.70
2023-03-28T08:02:44.727Z,4.80
2023-03-28T08:05:14.821Z,4.70
2023-03-28T08:07:45.901Z,4.90
2023-03-28T08:10:15.221Z,5.00
2023-03-28T08:12:45.133Z,5.00
2023-03-28T08:15:13.623Z,5.20
2023-03-28T08:17:41.843Z,5.20
2023-03-28T08:20:11.968Z,5.20
2023-03-28T08:23:02.929Z,5.30
2023-03-28T08:25:49.768Z,5.40
2023-03-28T08:28:23.268Z,5.40
2023-03-28T08:30:52.040Z,5.50
2023-03-28T08:33:20.260Z,5.50
2023-03-28T08:35:48.942Z,5.60
2023-03-28T08:38:19.923Z,5.70
2023-03-28T08:41:02.087Z,5.70
2023-03-28T08:44:07.133Z,5.80
2023-03-28T08:46:37.796Z,6.10
2023-03-28T08:49:08.676Z,6.30
2023-03-28T08:51:40.586Z,6.40
2023-03-28T08:54:16.026Z,6.50
2023-03-28T08:56:47.664Z,6.60
2023-03-28T08:59:20.274Z,6.70
2023-03-28T09:01:48.616Z,6.80
2023-03-28T09:04:25.755Z,6.70
2023-03-28T09:07:07.262Z,6.90
2023-03-28T09:09:50.827Z,7.00
2023-03-28T09:12:50.945Z,6.80
2023-03-28T09:15:53.925Z,6.70
2023-03-28T09:19:03.648Z,6.60
2023-03-28T09:21:44.057Z,6.90
2023-03-28T09:24:25.894Z,7.00
2023-03-28T09:27:25.266Z,6.90
2023-03-28T09:29:58.079Z,7.00
2023-03-28T09:32:30.676Z,7.30
2023-03-28T09:34:59.735Z,7.30
2023-03-28T09:37:33.225Z,7.30
2023-03-28T09:40:08.974Z,7.60
2023-03-28T09:42:56.985Z,7.90
2023-03-28T09:45:54.220Z,7.90
2023-03-28T09:48:42.385Z,7.70
2023-03-28T09:51:17.123Z,7.80
2023-03-28T09:53:47.723Z,8.00
2023-03-28T09:56:24.689Z,8.20
2023-03-28T09:58:54.190Z,8.40
2023-03-28T10:01:45.123Z,8.30
2023-03-28T10:04:32.360Z,7.90
2023-03-28T10:07:32.410Z,7.80
2023-03-28T10:10:19.431Z,7.70
2023-03-28T10:12:50.416Z,7.40
2023-03-28T10:15:33.613Z,7.60
2023-03-28T10:18:23.044Z,7.80
2023-03-28T10:21:14.725Z,8.00
2023-03-28T10:23:51.005Z,8.10
2023-03-28T10:26:24.815Z,7.80
2023-03-28T10:28:55.597Z,7.70
2023-03-28T10:31:30.676Z,7.90
2023-03-28T10:34:30.463Z,8.20
2023-03-28T10:37:28.567Z,8.50
2023-03-28T10:40:29.645Z,8.60
2023-03-28T10:43:16.913Z,9.10
2023-03-28T10:45:51.027Z,9.40
2023-03-28T10:48:34.354Z,9.70
2023-03-28T10:51:11.101Z,9.70
2023-03-28T10:54:11.886Z,9.40
2023-03-28T10:56:52.739Z,9.40
2023-03-28T10:59:46.815Z,9.10
2023-03-28T11:02:43.469Z,9.00
2023-03-28T11:05:29.513Z,9.00
2023-03-28T11:08:04.148Z,8.90
2023-03-28T11:10:58.738Z,8.90
2023-03-28T11:13:46.445Z,9.10
2023-03-28T11:16:22.868Z,9.10
2023-03-28T11:19:16.636Z,9.00
2023-03-28T11:21:55.551Z,9.10
2023-03-28T11:24:32.857Z,8.90
2023-03-28T11:27:30.081Z,8.90
2023-03-28T11:30:12.083Z,8.80
2023-03-28T11:32:50.830Z,9.10
2023-03-28T11:35:27.174Z,9.50
2023-03-28T11:38:03.105Z,9.40
2023-03-28T11:40:49.380Z,9.50
2023-03-28T11:43:28.776Z,9.40
2023-03-28T11:46:01.006Z,9.60
2023-03-28T11:48:36.180Z,9.20
2023-03-28T11:51:14.217Z,9.20
2023-03-28T11:53:58.536Z,9.30
2023-03-28T11:56:42.922Z,9.50
2023-03-28T11:59:25.550Z,9.50
2023-03-28T12:01:59.875Z,9.40
2023-03-28T12:04:33.581Z,9.20
2023-03-28T12:07:10.557Z,9.40
2023-03-28T12:09:58.010Z,9.60
2023-03-28T12:12:32.188Z,9.60
2023-03-28T12:15:07.892Z,9.50
2023-03-28T12:18:14.494Z,9.70
2023-03-28T12:20:51.192Z,9.90
2023-03-28T12:23:39.546Z,9.70
2023-03-28T12:26:58.016Z,9.90
2023-03-28T12:29:37.319Z,10.10
2023-03-28T12:32:24.374Z,10.00
2023-03-28T12:35:01.986Z,10.10
2023-03-28T12:38:02.664Z,10.30
2023-03-28T12:40:48.266Z,10.10
2023-03-28T12:43:20.070Z,10.00
2023-03-28T12:45:53.060Z,9.90
2023-03-28T12:48:32.394Z,10.00
2023-03-28T12:51:06.492Z,10.10
2023-03-28T12:53:35.933Z,10.20
2023-03-28T12:56:04.573Z,10.00
2023-03-28T12:58:36.418Z,9.80
2023-03-28T13:01:31.092Z,9.70
2023-03-28T13:04:32.968Z,9.60
2023-03-28T13:07:24.592Z,9.60
2023-03-28T13:09:59.893Z,9.70
2023-03-28T13:12:49.366Z,9.40
2023-03-28T13:15:30.977Z,9.50
2023-03-28T13:18:29.843Z,9.60
2023-03-28T13:21:03.125Z,9.80
2023-03-28T13:23:34.819Z,10.00
2023-03-28T13:26:04.428Z,10.10
2023-03-28T13:28:35.577Z,10.00
2023-03-28T13:31:11.495Z,10.20
2023-03-28T13:33:45.378Z,10.30
2023-03-28T13:36:24.527Z,10.30
2023-03-28T13:39:07.181Z,10.40
2023-03-28T13:41:55.340Z,10.40
2023-03-28T13:44:28.684Z,10.30
2023-03-28T13:46:57.995Z,10.40
2023-03-28T13:49:37.998Z,10.50
2023-03-28T13:52:11.757Z,10.50
2023-03-28T13:54:40.032Z,10.60
2023-03-28T13:57:14.077Z,10.60
2023-03-28T13:59:50.301Z,10.80
2023-03-28T14:02:21.464Z,10.90
2023-03-28T14:04:54.563Z,10.80
2023-03-28T14:07:28.995Z,10.70
2023-03-28T14:09:58.310Z,10.70
2023-03-28T14:12:30.239Z,10.40
2023-03-28T14:15:01.323Z,10.30
2023-03-28T14:17:36.634Z,10.20
2023-03-28T14:20:08.279Z,10.10
2023-03-28T14:22:52.814Z,10.00
2023-03-28T14:25:26.411Z,9.80
2023-03-28T14:27:57.374Z,9.80
2023-03-28T14:30:28.532Z,9.80
2023-03-28T14:32:59.918Z,9.70
2023-03-28T14:35:30.742Z,9.80
2023-03-28T14:38:01.971Z,9.80
2023-03-28T14:40:33.566Z,9.90
2023-03-28T14:43:05.300Z,9.80
2023-03-28T14:45:37.844Z,9.90
2023-03-28T14:48:10.080Z,9.90
2023-03-28T14:50:39.975Z,10.00
2023-03-28T14:53:14.631Z,10.10
2023-03-28T14:55:43.449Z,10.00
2023-03-28T14:58:13.990Z,10.10
2023-03-28T15:00:44.164Z,10.00
2023-03-28T15:03:17.103Z,10.00
2023-03-28T15:05:47.220Z,10.10
2023-03-28T15:08:28.282Z,10.20
2023-03-28T15:11:03.224Z,10.30
2023-03-28T15:13:37.652Z,10.30
2023-03-28T15:16:08.129Z,10.20
2023-03-28T15:18:44.274Z,10.10
2023-03-28T15:21:12.962Z,10.10
2023-03-28T15:23:47.893Z,10.10
2023-03-28T15:26:25.520Z,10.20
2023-03-28T15:28:55.548Z,10.40
2023-03-28T15:31:24.848Z,10.30
2023-03-28T15:33:55.270Z,10.40
2023-03-28T15:36:26.417Z,10.50
2023-03-28T15:39:01.680Z,10.50
2023-03-28T15:41:43.728Z,10.50
2023-03-28T15:44:25.872Z,10.50
2023-03-28T15:46:54.738Z,10.50
2023-03-28T15:49:23.363Z,10.50
2023-03-28T15:51:56.455Z,10.50
2023-03-28T15:54:31.429Z,10.50
2023-03-28T15:57:03.188Z,10.40
2023-03-28T15:59:35.754Z,10.30
2023-03-28T16:02:32.544Z,10.30
2023-03-28T16:05:02.345Z,10.30
2023-03-28T16:07:50.864Z,10.10
2023-03-28T16:10:22.322Z,10.10
2023-03-28T16:13:23.553Z,10.00
2023-03-28T16:16:19.252Z,9.90
2023-03-28T16:18:57.982Z,9.80
2023-03-28T16:21:26.969Z,9.80
2023-03-28T16:23:55.198Z,9.60
2023-03-28T16:26:24.804Z,9.60
2023-03-28T16:28:53.088Z,9.50
2023-03-28T16:31:21.354Z,9.40
2023-03-28T16:33:49.552Z,9.40
2023-03-28T16:36:17.763Z,9.40
2023-03-28T16:38:47.278Z,9.40
2023-03-28T16:41:15.855Z,9.40
2023-03-28T16:43:45.578Z,9.40
2023-03-28T16:46:13.901Z,9.40
2023-03-28T16:48:42.355Z,9.40
2023-03-28T16:51:10.903Z,9.40
2023-03-28T16:53:40.481Z,9.40
2023-03-28T16:56:11.978Z,9.40
2023-03-28T16:58:40.519Z,9.30
2023-03-28T17:01:12.556Z,9.30
2023-03-28T17:03:40.867Z,9.20
2023-03-28T17:06:11.357Z,9.20
2023-03-28T17:08:39.977Z,9.10
2023-03-28T17:11:10.066Z,9.10
2023-03-28T17:13:38.921Z,9.10
2023-03-28T17:16:09.880Z,9.00
2023-03-28T17:18:38.705Z,9.00
2023-03-28T17:21:08.634Z,9.00
2023-03-28T17:23:38.456Z,9.00
2023-03-28T17:26:08.406Z,8.90
2023-03-28T17:28:39.826Z,8.80
2023-03-28T17:31:13.082Z,8.80
2023-03-28T17:33:41.638Z,8.70
2023-03-28T17:36:21.067Z,8.80
2023-03-28T17:38:50.558Z,8.70
2023-03-28T17:41:18.974Z,8.70
2023-03-28T17:43:47.369Z,8.60
2023-03-28T17:46:17.202Z,8.60
2023-03-28T17:48:45.866Z,8.60
2023-03-28T17:51:14.245Z,8.60
2023-03-28T17:53:44.522Z,8.50
2023-03-28T17:56:13.277Z,8.50
2023-03-28T17:58:42.166Z,8.40
2023-03-28T18:01:11.562Z,8.40
2023-03-28T18:03:41.497Z,8.30
2023-03-28T18:06:30.119Z,8.40
2023-03-28T18:08:58.327Z,8.30
2023-03-28T18:11:26.828Z,8.30
2023-03-28T18:13:58.703Z,8.30
2023-03-28T18:16:28.713Z,8.30
2023-03-28T18:18:58.433Z,8.30
2023-03-28T18:21:27.116Z,8.20
2023-03-28T18:23:56.794Z,8.20
2023-03-28T18:26:28.667Z,8.20
2023-03-28T18:28:57.500Z,8.20
2023-03-28T18:31:28.483Z,8.20
2023-03-28T18:33:58.212Z,8.10
2023-03-28T18:36:26.807Z,8.20
2023-03-28T18:38:55.982Z,8.10
2023-03-28T18:41:25.095Z,8.10
2023-03-28T18:43:53.418Z,8.10
2023-03-28T18:46:21.682Z,8.20
2023-03-28T18:48:49.925Z,8.10
2023-03-28T18:51:20.453Z,8.10
2023-03-28T18:53:48.765Z,8.10
2023-03-28T18:56:17.045Z,8.00
2023-03-28T18:58:47.735Z,8.10
2023-03-28T19:01:16.149Z,8.10
2023-03-28T19:03:45.069Z,8.10
2023-03-28T19:06:15.090Z,8.00
2023-03-28T19:08:45.187Z,8.00
2023-03-28T19:11:16.900Z,8.00
2023-03-28T19:13:45.473Z,8.00
2023-03-28T19:16:15.365Z,8.00
2023-03-28T19:18:45.311Z,8.00
2023-03-28T19:21:13.865Z,8.00
2023-03-28T19:23:42.352Z,8.00
2023-03-28T19:26:13.965Z,7.90
2023-03-28T19:28:43.146Z,7.90
2023-03-28T19:31:14.496Z,7.90
2023-03-28T19:33:43.593Z,7.90
2023-03-28T19:36:12.436Z,7.90
2023-03-28T19:38:40.975Z,7.90
2023-03-28T19:41:15.907Z,7.90
2023-03-28T19:43:44.735Z,7.90
2023-03-28T19:46:16.509Z,7.90
2023-03-28T19:48:44.847Z,7.90
2023-03-28T19:51:14.173Z,7.90
2023-03-28T19:53:42.625Z,7.90
2023-03-28T19:56:12.237Z,7.90
2023-03-28T19:58:40.939Z,7.90
2023-03-28T20:01:09.089Z,7.90
2023-03-28T20:03:37.359Z,8.00
2023-03-28T20:06:07.952Z,8.10
2023-03-28T20:08:36.490Z,8.10
2023-03-28T20:11:08.182Z,8.20
2023-03-28T20:13:38.363Z,8.20
2023-03-28T20:16:09.253Z,8.30
2023-03-28T20:18:38.055Z,8.10
2023-03-28T20:21:08.281Z,8.10
2023-03-28T20:23:36.921Z,8.00
2023-03-28T20:26:15.489Z,8.00
2023-03-28T20:28:49.316Z,7.90
2023-03-28T20:31:18.308Z,7.80
2023-03-28T20:33:46.648Z,7.60
2023-03-28T20:36:14.921Z,7.60
2023-03-28T20:38:43.174Z,7.60
2023-03-28T20:41:12.484Z,7.50
2023-03-28T20:43:46.503Z,7.40
2023-03-28T20:46:19.059Z,7.40
2023-03-28T20:48:51.961Z,7.40
2023-03-28T20:51:22.555Z,7.40
2023-03-28T20:53:53.589Z,7.40
2023-03-28T20:56:22.519Z,7.40
2023-03-28T20:58:53.344Z,7.40
2023-03-28T21:01:26.344Z,7.40
2023-03-28T21:03:57.952Z,7.40
2023-03-28T21:06:29.420Z,7.40
2023-03-28T21:09:00.524Z,7.30
2023-03-28T21:11:31.017Z,7.30
2023-03-28T21:14:00.236Z,7.20
2023-03-28T21:16:31.409Z,7.20
2023-03-28T21:18:59.976Z,7.20
2023-03-28T21:21:29.887Z,7.10
2023-03-28T21:23:58.477Z,7.00
2023-03-28T21:26:28.966Z,6.90
2023-03-28T21:28:57.403Z,6.90
2023-03-28T21:31:27.304Z,6.70
2023-03-28T21:33:58.281Z,6.70
2023-03-28T21:36:27.675Z,6.60
2023-03-28T21:38:56.401Z,6.60
2023-03-28T21:41:24.941Z,6.50
2023-03-28T21:43:54.651Z,6.40
2023-03-28T21:46:23.015Z,6.40
2023-03-28T21:48:51.290Z,6.40
2023-03-28T21:51:20.986Z,6.40
2023-03-28T21:53:49.310Z,6.40
2023-03-28T21:56:17.642Z,6.40
2023-03-28T21:58:46.084Z,6.40
2023-03-28T22:01:17.513Z,6.40
2023-03-28T22:03:46.742Z,6.40
2023-03-28T22:06:16.678Z,6.30
2023-03-28T22:08:51.867Z,6.30
2023-03-28T22:11:27.966Z,6.30
2023-03-28T22:14:02.846Z,6.20
2023-03-28T22:16:32.623Z,6.20
2023-03-28T22:19:01.102Z,6.20
2023-03-28T22:21:31.559Z,6.20
2023-03-28T22:24:04.354Z,6.20
2023-03-28T22:26:32.575Z,6.10
2023-03-28T22:29:00.995Z,6.20
2023-03-28T22:31:29.604Z,6.10
2023-03-28T22:33:57.956Z,6.10
2023-03-28T22:36:27.117Z,6.20
2023-03-28T22:38:57.086Z,6.20
2023-03-28T22:41:31.995Z,6.10
2023-03-28T22:44:00.362Z,6.10
2023-03-28T22:46:28.580Z,6.10
2023-03-28T22:48:58.583Z,6.00
2023-03-28T22:51:27.831Z,6.00
2023-03-28T22:54:00.347Z,6.10
2023-03-28T22:56:30.638Z,6.00
2023-03-28T22:59:01.233Z,6.00
2023-03-28T23:01:30.232Z,6.00
2023-03-28T23:03:58.540Z,6.00
2023-03-28T23:06:27.178Z,6.00
2023-03-28T23:08:55.495Z,6.00
2023-03-28T23:11:23.735Z,5.90
2023-03-28T23:13:53.382Z,5.90
2023-03-28T23:16:21.864Z,5.90
2023-03-28T23:18:50.840Z,5.90
2023-03-28T23:21:19.010Z,6.00
2023-03-28T23:23:47.696Z,6.00
2023-03-28T23:26:16.718Z,5.90
2023-03-28T23:28:45.772Z,5.90
2023-03-28T23:31:15.581Z,5.90
2023-03-28T23:33:44.630Z,5.90
2023-03-28T23:36:14.132Z,5.90
2023-03-28T23:38:42.649Z,5.90
2023-03-28T23:41:11.202Z,5.80
2023-03-28T23:43:39.847Z,5.90
2023-03-28T23:46:09.041Z,5.80
2023-03-28T23:48:38.799Z,5.80
2023-03-28T23:51:07.789Z,5.80
2023-03-28T23:53:36.286Z,5.80
2023-03-28T23:56:04.971Z,5.80
2023-03-28T23:58:33.255Z,5.80
